Terminal Aerodrome Forecast
Issued by NWS Green Bay, WI

Home | Current Version | Previous Version | Text Only | Print | Product List | Glossary Off
Versions: 1 2 3 4 5 6 7 8 9 10 11 12 13 14 15 16 17 18 19 20 21 22 23

096
FTUS43 KGRB 131722
TAFGRB
TAF
KGRB 131722Z 1318/1418 28008KT P6SM SKC
     FM140000 25004KT P6SM SKC
     FM140500 00000KT P6SM SCT250
     FM141100 15003KT P6SM BKN250
     FM141500 15007KT P6SM FEW040 SCT120 BKN200=

USA.gov is the U.S. government's official web portal to all federal, state and local government web resources and services.